createdAt,value
2023-01-29T00:02:06.141Z,-1.75
2023-01-29T00:04:32.904Z,-1.71
2023-01-29T00:06:59.698Z,-1.66
2023-01-29T00:09:27.583Z,-1.78
2023-01-29T00:11:54.186Z,-1.83
2023-01-29T00:14:20.899Z,-1.86
2023-01-29T00:16:47.501Z,-1.85
2023-01-29T00:19:14.061Z,-1.83
2023-01-29T00:21:40.648Z,-1.80
2023-01-29T00:24:07.486Z,-1.83
2023-01-29T00:26:34.158Z,-1.85
2023-01-29T00:29:02.055Z,-1.83
2023-01-29T00:31:29.040Z,-1.83
2023-01-29T00:33:55.679Z,-1.81
2023-01-29T00:36:23.195Z,-1.79
2023-01-29T00:38:58.715Z,-1.89
2023-01-29T00:41:48.962Z,-1.93
2023-01-29T00:44:34.722Z,-1.91
2023-01-29T00:47:02.039Z,-1.87
2023-01-29T00:49:30.273Z,-1.86
2023-01-29T00:52:17.357Z,-1.84
2023-01-29T00:54:43.937Z,-1.85
2023-01-29T00:57:10.624Z,-1.82
2023-01-29T00:59:37.768Z,-1.86
2023-01-29T01:02:23.188Z,-1.87
2023-01-29T01:04:49.770Z,-1.97
2023-01-29T01:07:16.401Z,-1.94
2023-01-29T01:10:01.365Z,-1.92
2023-01-29T01:12:28.381Z,-1.92
2023-01-29T01:14:55.005Z,-1.96
2023-01-29T01:17:21.787Z,-1.98
2023-01-29T01:19:48.842Z,-1.95
2023-01-29T01:22:15.741Z,-1.94
2023-01-29T01:24:43.967Z,-1.90
2023-01-29T01:27:10.614Z,-1.93
2023-01-29T01:29:37.238Z,-2.04
2023-01-29T01:32:04.004Z,-2.26
2023-01-29T01:34:30.641Z,-2.43
2023-01-29T01:36:57.360Z,-2.55
2023-01-29T01:39:24.813Z,-2.73
2023-01-29T01:41:56.086Z,-2.79
2023-01-29T01:44:50.469Z,-2.95
2023-01-29T01:47:20.557Z,-3.13
2023-01-29T01:49:47.576Z,-3.35
2023-01-29T01:52:16.535Z,-3.46
2023-01-29T01:54:44.357Z,-3.61
2023-01-29T01:57:17.181Z,-3.71
2023-01-29T01:59:53.724Z,-3.73
2023-01-29T02:02:38.855Z,-3.73
2023-01-29T02:05:25.198Z,-3.72
2023-01-29T02:08:11.032Z,-3.99
2023-01-29T02:10:47.038Z,-4.06
2023-01-29T02:13:17.376Z,-4.12
2023-01-29T02:15:48.927Z,-3.96
2023-01-29T02:18:18.019Z,-4.15
2023-01-29T02:21:15.309Z,-4.55
2023-01-29T02:23:54.268Z,-4.57
2023-01-29T02:26:33.022Z,-4.65
2023-01-29T02:29:25.335Z,-4.68
2023-01-29T02:32:20.200Z,-4.60
2023-01-29T02:35:18.611Z,-4.77
2023-01-29T02:37:57.845Z,-4.96
2023-01-29T02:40:40.453Z,-4.77
2023-01-29T02:43:45.403Z,-4.75
2023-01-29T02:46:37.146Z,-4.81
2023-01-29T02:49:40.962Z,-4.81
2023-01-29T02:52:18.629Z,-4.81
2023-01-29T02:54:57.059Z,-4.87
2023-01-29T02:57:30.523Z,-4.87
2023-01-29T03:00:27.866Z,-5.01
2023-01-29T03:02:57.791Z,-5.13
2023-01-29T03:05:53.392Z,-5.18
2023-01-29T03:08:37.052Z,-5.24
2023-01-29T03:11:06.796Z,-5.26
2023-01-29T03:13:53.539Z,-5.57
2023-01-29T03:16:30.390Z,-5.62
2023-01-29T03:19:10.927Z,-5.54
2023-01-29T03:21:51.599Z,-5.44
2023-01-29T03:24:44.887Z,-5.42
2023-01-29T03:27:34.810Z,-5.53
2023-01-29T03:30:23.125Z,-5.87
2023-01-29T03:33:03.467Z,-5.85
2023-01-29T03:35:36.953Z,-5.82
2023-01-29T03:38:07.489Z,-5.75
2023-01-29T03:40:42.387Z,-5.74
2023-01-29T03:43:29.901Z,-5.72
2023-01-29T03:46:11.778Z,-5.79
2023-01-29T03:48:48.298Z,-5.90
2023-01-29T03:51:25.099Z,-5.86
2023-01-29T03:54:04.240Z,-5.69
2023-01-29T03:56:42.589Z,-5.57
2023-01-29T03:59:22.782Z,-5.48
2023-01-29T04:02:19.323Z,-5.38
2023-01-29T04:04:51.959Z,-5.26
2023-01-29T04:07:24.511Z,-5.37
2023-01-29T04:10:28.320Z,-5.37
2023-01-29T04:13:15.919Z,-5.24
2023-01-29T04:15:50.436Z,-5.09
2023-01-29T04:18:19.931Z,-5.08
2023-01-29T04:21:07.399Z,-5.03
2023-01-29T04:23:34.335Z,-4.90
2023-01-29T04:26:18.027Z,-4.73
2023-01-29T04:28:56.071Z,-4.69
2023-01-29T04:31:31.025Z,-4.62
2023-01-29T04:34:12.719Z,-4.69
2023-01-29T04:36:57.748Z,-4.77
2023-01-29T04:39:30.123Z,-4.59
2023-01-29T04:42:12.215Z,-4.63
2023-01-29T04:44:49.835Z,-4.58
2023-01-29T04:47:45.176Z,-4.43
2023-01-29T04:50:26.563Z,-4.40
2023-01-29T04:53:24.207Z,-4.39
2023-01-29T04:56:13.683Z,-4.26
2023-01-29T04:58:45.009Z,-4.36
2023-01-29T05:01:16.575Z,-4.39
2023-01-29T05:03:46.954Z,-4.23
2023-01-29T05:06:15.898Z,-4.09
2023-01-29T05:08:42.564Z,-4.03
2023-01-29T05:11:10.515Z,-4.03
2023-01-29T05:13:40.709Z,-3.83
2023-01-29T05:16:19.463Z,-3.77
2023-01-29T05:18:46.555Z,-3.73
2023-01-29T05:21:13.301Z,-3.69
2023-01-29T05:23:39.975Z,-3.62
2023-01-29T05:26:06.539Z,-3.54
2023-01-29T05:28:33.162Z,-3.53
2023-01-29T05:30:59.800Z,-3.51
2023-01-29T05:33:29.169Z,-3.48
2023-01-29T05:35:57.072Z,-3.46
2023-01-29T05:38:23.881Z,-3.47
2023-01-29T05:40:50.466Z,-3.51
2023-01-29T05:43:22.767Z,-3.57
2023-01-29T05:45:54.655Z,-3.49
2023-01-29T05:48:21.820Z,-3.36
2023-01-29T05:50:48.579Z,-3.28
2023-01-29T05:53:15.729Z,-3.25
2023-01-29T05:55:46.827Z,-3.23
2023-01-29T05:58:13.683Z,-3.19
2023-01-29T06:00:41.061Z,-3.13
2023-01-29T06:03:07.835Z,-3.20
2023-01-29T06:05:38.550Z,-3.38
2023-01-29T06:08:05.665Z,-3.49
2023-01-29T06:10:32.527Z,-3.35
2023-01-29T06:12:59.152Z,-3.34
2023-01-29T06:15:26.582Z,-3.28
2023-01-29T06:17:57.072Z,-3.25
2023-01-29T06:20:24.574Z,-3.31
2023-01-29T06:22:51.130Z,-3.32
2023-01-29T06:25:17.816Z,-3.19
2023-01-29T06:27:44.417Z,-3.16
2023-01-29T06:30:11.587Z,-3.34
2023-01-29T06:32:38.494Z,-3.29
2023-01-29T06:35:05.588Z,-3.26
2023-01-29T06:37:32.207Z,-3.26
2023-01-29T06:39:58.795Z,-3.23
2023-01-29T06:42:28.034Z,-3.18
2023-01-29T06:44:58.159Z,-3.32
2023-01-29T06:47:25.201Z,-3.34
2023-01-29T06:49:52.319Z,-3.24
2023-01-29T06:52:19.192Z,-3.21
2023-01-29T06:54:45.777Z,-3.51
2023-01-29T06:57:12.363Z,-3.58
2023-01-29T06:59:38.967Z,-3.47
2023-01-29T07:02:05.558Z,-3.33
2023-01-29T07:04:32.265Z,-3.24
2023-01-29T07:07:01.883Z,-3.19
2023-01-29T07:09:28.543Z,-3.26
2023-01-29T07:11:55.094Z,-3.41
2023-01-29T07:14:21.665Z,-3.49
2023-01-29T07:16:48.273Z,-3.43
2023-01-29T07:19:14.873Z,-3.25
2023-01-29T07:21:41.412Z,-3.15
2023-01-29T07:24:08.341Z,-3.29
2023-01-29T07:26:34.961Z,-3.49
2023-01-29T07:29:01.511Z,-3.37
2023-01-29T07:31:28.363Z,-3.30
2023-01-29T07:33:55.768Z,-3.28
2023-01-29T07:36:22.385Z,-3.16
2023-01-29T07:38:50.596Z,-3.09
2023-01-29T07:41:17.318Z,-3.10
2023-01-29T07:43:45.829Z,-2.99
2023-01-29T07:46:12.512Z,-2.87
2023-01-29T07:48:39.194Z,-2.75
2023-01-29T07:51:06.093Z,-2.66
2023-01-29T07:53:32.851Z,-2.59
2023-01-29T07:55:59.418Z,-2.64
2023-01-29T07:58:26.024Z,-2.68
2023-01-29T08:00:52.822Z,-2.58
2023-01-29T08:03:20.780Z,-2.65
2023-01-29T08:05:47.752Z,-2.63
2023-01-29T08:08:14.833Z,-2.86
2023-01-29T08:10:42.454Z,-2.88
2023-01-29T08:13:09.809Z,-2.78
2023-01-29T08:18:23.542Z,-2.54
2023-01-29T08:20:50.101Z,-2.46
2023-01-29T08:23:16.685Z,-2.46
2023-01-29T08:25:43.549Z,-2.35
2023-01-29T08:28:11.721Z,-2.26
2023-01-29T08:30:38.967Z,-2.41
2023-01-29T08:33:05.539Z,-2.31
2023-01-29T08:35:32.212Z,-2.19
2023-01-29T08:38:01.305Z,-1.94
2023-01-29T08:40:29.566Z,-2.13
2023-01-29T08:43:06.980Z,-2.30
2023-01-29T08:45:37.629Z,-2.31
2023-01-29T08:48:04.532Z,-2.30
2023-01-29T08:50:31.953Z,-2.35
2023-01-29T08:52:59.521Z,-2.45
2023-01-29T08:55:26.602Z,-2.62
2023-01-29T08:57:53.387Z,-2.77
2023-01-29T09:00:20.409Z,-2.77
2023-01-29T09:02:47.201Z,-2.67
2023-01-29T09:05:13.863Z,-2.59
2023-01-29T09:07:40.462Z,-2.37
2023-01-29T09:10:08.153Z,-2.60
2023-01-29T09:12:34.729Z,-2.60
2023-01-29T09:15:01.296Z,-2.39
2023-01-29T09:17:27.888Z,-2.38
2023-01-29T09:19:54.692Z,-2.43
2023-01-29T09:22:21.335Z,-2.26
2023-01-29T09:24:47.957Z,-2.16
2023-01-29T09:27:14.627Z,-2.11
2023-01-29T09:29:41.276Z,-1.97
2023-01-29T09:32:07.908Z,-1.93
2023-01-29T09:34:34.921Z,-1.89
2023-01-29T09:37:01.575Z,-1.80
2023-01-29T09:39:28.220Z,-1.67
2023-01-29T09:42:00.403Z,-1.50
2023-01-29T09:44:38.123Z,-1.37
2023-01-29T09:47:11.103Z,-1.25
2023-01-29T09:49:43.494Z,-1.38
2023-01-29T09:52:27.112Z,-1.24
2023-01-29T09:55:02.583Z,-1.22
2023-01-29T09:57:51.819Z,-1.01
2023-01-29T10:00:34.621Z,-0.82
2023-01-29T10:03:32.204Z,-0.72
2023-01-29T10:06:06.220Z,-0.50
2023-01-29T10:08:32.758Z,-0.48
2023-01-29T10:11:21.478Z,-0.58
2023-01-29T10:14:20.188Z,-0.73
2023-01-29T10:17:05.697Z,-0.75
2023-01-29T10:19:46.144Z,-0.73
2023-01-29T10:22:42.163Z,-0.75
2023-01-29T10:25:15.702Z,-0.69
2023-01-29T10:27:49.670Z,-0.86
2023-01-29T10:30:45.879Z,-0.38
2023-01-29T10:33:25.648Z,-0.31
2023-01-29T10:36:00.436Z,-0.39
2023-01-29T10:38:46.744Z,-0.39
2023-01-29T10:41:39.773Z,0.05
2023-01-29T10:44:45.159Z,0.04
2023-01-29T10:47:27.238Z,0.25
2023-01-29T10:50:23.632Z,0.23
2023-01-29T10:53:22.389Z,0.17
2023-01-29T10:56:22.277Z,0.28
2023-01-29T10:58:54.314Z,0.20
2023-01-29T11:01:21.007Z,0.31
2023-01-29T11:03:57.418Z,0.62
2023-01-29T11:06:35.165Z,0.68
2023-01-29T11:09:24.041Z,0.62
2023-01-29T11:11:55.108Z,0.73
2023-01-29T11:14:26.443Z,0.81
2023-01-29T11:16:53.426Z,0.93
2023-01-29T11:19:44.268Z,0.60
2023-01-29T11:22:21.001Z,1.33
2023-01-29T11:25:09.991Z,1.41
2023-01-29T11:27:50.933Z,1.03
2023-01-29T11:30:28.296Z,1.00
2023-01-29T11:33:09.726Z,1.33
2023-01-29T11:35:36.760Z,1.00
2023-01-29T11:38:28.008Z,0.88
2023-01-29T11:41:06.782Z,1.10
2023-01-29T11:43:34.037Z,0.70
2023-01-29T11:46:07.290Z,0.68
2023-01-29T11:48:42.005Z,0.84
2023-01-29T11:51:12.572Z,0.70
2023-01-29T11:53:43.244Z,0.57
2023-01-29T11:56:24.096Z,0.68
2023-01-29T11:58:52.696Z,1.23
2023-01-29T12:01:30.523Z,1.10
2023-01-29T12:03:57.312Z,0.75
2023-01-29T12:06:33.633Z,1.55
2023-01-29T12:09:02.525Z,1.45
2023-01-29T12:11:30.825Z,0.84
2023-01-29T12:14:00.883Z,0.95
2023-01-29T12:16:33.327Z,0.99
2023-01-29T12:19:20.191Z,0.82
2023-01-29T12:21:52.522Z,0.62
2023-01-29T12:24:19.310Z,0.79
2023-01-29T12:26:51.846Z,0.70
2023-01-29T12:29:25.957Z,0.79
2023-01-29T12:32:12.494Z,0.95
2023-01-29T12:34:50.683Z,1.23
2023-01-29T12:37:40.550Z,1.20
2023-01-29T12:40:16.711Z,0.52
2023-01-29T12:42:48.813Z,0.15
2023-01-29T12:45:18.683Z,-0.21
2023-01-29T12:47:53.955Z,-0.17
2023-01-29T12:50:31.479Z,-0.09
2023-01-29T12:53:07.853Z,0.51
2023-01-29T12:55:43.663Z,0.79
2023-01-29T12:58:22.788Z,0.90
2023-01-29T13:00:52.940Z,0.78
2023-01-29T13:03:28.845Z,0.75
2023-01-29T13:06:16.575Z,0.67
2023-01-29T13:08:56.215Z,0.66
2023-01-29T13:11:32.811Z,0.76
2023-01-29T13:14:20.569Z,0.76
2023-01-29T13:16:51.532Z,0.73
2023-01-29T13:19:27.488Z,0.26
2023-01-29T13:21:57.563Z,0.13
2023-01-29T13:24:27.462Z,0.17
2023-01-29T13:26:54.154Z,0.33
2023-01-29T13:29:30.108Z,0.37
2023-01-29T13:32:02.165Z,0.49
2023-01-29T13:34:35.409Z,0.52
2023-01-29T13:37:09.816Z,0.46
2023-01-29T13:39:46.536Z,0.42
2023-01-29T13:42:23.159Z,0.54
2023-01-29T13:44:52.885Z,0.61
2023-01-29T13:47:37.542Z,0.54
2023-01-29T13:50:07.848Z,0.64
2023-01-29T13:52:39.743Z,0.60
2023-01-29T13:55:31.017Z,0.56
2023-01-29T13:58:00.318Z,0.55
2023-01-29T14:00:32.891Z,0.54
2023-01-29T14:03:08.555Z,0.49
2023-01-29T14:05:41.685Z,0.52
2023-01-29T14:08:14.128Z,0.54
2023-01-29T14:10:42.500Z,0.32
2023-01-29T14:13:18.261Z,0.33
2023-01-29T14:16:05.189Z,0.47
2023-01-29T14:18:34.243Z,0.41
2023-01-29T14:21:06.945Z,0.31
2023-01-29T14:23:49.247Z,0.11
2023-01-29T14:26:32.246Z,0.10
2023-01-29T14:29:04.393Z,0.17
2023-01-29T14:32:06.760Z,0.28
2023-01-29T14:34:36.103Z,0.21
2023-01-29T14:37:14.943Z,0.05
2023-01-29T14:39:58.194Z,0.03
2023-01-29T14:42:33.877Z,0.11
2023-01-29T14:45:21.347Z,0.03
2023-01-29T14:47:47.867Z,-0.05
2023-01-29T14:50:31.704Z,0.05
2023-01-29T14:53:16.847Z,-0.04
2023-01-29T14:55:55.095Z,-0.07
2023-01-29T14:58:48.138Z,-0.06
2023-01-29T15:01:26.963Z,-0.19
2023-01-29T15:04:14.768Z,-0.16
2023-01-29T15:06:47.555Z,-0.18
2023-01-29T15:09:36.653Z,-0.36
2023-01-29T15:12:18.772Z,-0.29
2023-01-29T15:15:26.126Z,-0.35
2023-01-29T15:18:29.082Z,-0.36
2023-01-29T15:21:05.595Z,-0.36
2023-01-29T15:23:34.380Z,-0.40
2023-01-29T15:26:04.287Z,-0.50
2023-01-29T15:28:33.016Z,-0.53
2023-01-29T15:31:01.726Z,-0.68
2023-01-29T15:33:28.955Z,-0.67
2023-01-29T15:36:08.029Z,-0.65
2023-01-29T15:38:35.704Z,-0.75
2023-01-29T15:41:17.865Z,-0.82
2023-01-29T15:43:48.442Z,-0.87
2023-01-29T15:46:39.647Z,-1.10
2023-01-29T15:49:09.828Z,-1.06
2023-01-29T15:51:36.937Z,-1.14
2023-01-29T15:54:05.708Z,-1.16
2023-01-29T15:56:49.300Z,-1.27
2023-01-29T15:59:22.808Z,-1.33
2023-01-29T16:01:49.517Z,-1.43
2023-01-29T16:04:25.688Z,-1.40
2023-01-29T16:06:54.743Z,-1.51
2023-01-29T16:09:25.310Z,-1.57
2023-01-29T16:11:54.561Z,-1.71
2023-01-29T16:14:25.487Z,-1.74
2023-01-29T16:16:53.563Z,-1.80
2023-01-29T16:19:22.219Z,-1.85
2023-01-29T16:21:56.587Z,-1.84
2023-01-29T16:24:24.974Z,-1.93
2023-01-29T16:26:58.100Z,-1.96
2023-01-29T16:29:31.191Z,-2.00
2023-01-29T16:32:01.951Z,-2.04
2023-01-29T16:34:28.626Z,-2.13
2023-01-29T16:36:56.064Z,-2.19
2023-01-29T16:39:32.598Z,-2.21
2023-01-29T16:42:17.397Z,-2.29
2023-01-29T16:44:55.570Z,-2.37
2023-01-29T16:47:41.476Z,-2.40
2023-01-29T16:50:27.295Z,-2.44
2023-01-29T16:53:01.242Z,-2.42
2023-01-29T16:55:35.747Z,-2.45
2023-01-29T16:58:18.129Z,-2.49
2023-01-29T17:01:01.110Z,-2.59
2023-01-29T17:03:30.295Z,-2.59
2023-01-29T17:05:56.950Z,-2.62
2023-01-29T17:08:33.530Z,-2.68
2023-01-29T17:11:01.160Z,-2.72
2023-01-29T17:13:36.052Z,-2.75
2023-01-29T17:16:20.234Z,-2.79
2023-01-29T17:18:46.828Z,-2.78
2023-01-29T17:21:13.420Z,-2.78
2023-01-29T17:23:40.007Z,-2.77
2023-01-29T17:26:10.164Z,-2.76
2023-01-29T17:28:37.385Z,-2.74
2023-01-29T17:31:06.918Z,-2.74
2023-01-29T17:33:35.696Z,-2.68
2023-01-29T17:36:02.278Z,-2.68
2023-01-29T17:38:28.894Z,-2.73
2023-01-29T17:41:23.575Z,-2.67
2023-01-29T17:43:50.969Z,-2.67
2023-01-29T17:46:19.023Z,-2.63
2023-01-29T17:48:46.469Z,-2.68
2023-01-29T17:51:15.136Z,-2.68
2023-01-29T17:53:45.850Z,-2.72
2023-01-29T17:56:35.010Z,-2.72
2023-01-29T17:59:02.011Z,-2.66
2023-01-29T18:01:28.589Z,-2.66
2023-01-29T18:03:55.284Z,-2.63
2023-01-29T18:06:29.795Z,-2.66
2023-01-29T18:08:57.135Z,-2.65
2023-01-29T18:11:24.139Z,-2.67
2023-01-29T18:13:51.386Z,-2.72
2023-01-29T18:16:18.542Z,-2.67
2023-01-29T18:18:45.203Z,-2.74
2023-01-29T18:21:11.774Z,-2.73
2023-01-29T18:23:38.387Z,-2.75
2023-01-29T18:26:05.978Z,-2.68
2023-01-29T18:28:33.205Z,-2.63
2023-01-29T18:31:05.899Z,-2.58
2023-01-29T18:33:34.244Z,-2.49
2023-01-29T18:36:01.579Z,-2.45
2023-01-29T18:38:28.168Z,-2.42
2023-01-29T18:41:02.926Z,-2.32
2023-01-29T18:43:29.812Z,-2.40
2023-01-29T18:45:59.925Z,-2.37
2023-01-29T18:48:26.688Z,-2.37
2023-01-29T18:50:53.315Z,-2.34
2023-01-29T18:53:20.163Z,-2.30
2023-01-29T18:55:58.121Z,-2.28
2023-01-29T18:58:34.221Z,-2.27
2023-01-29T19:01:09.408Z,-2.27
2023-01-29T19:03:37.700Z,-2.32
2023-01-29T19:06:06.789Z,-2.34
2023-01-29T19:08:34.490Z,-2.25
2023-01-29T19:11:04.204Z,-2.24
2023-01-29T19:13:34.661Z,-2.21
2023-01-29T19:16:02.437Z,-2.09
2023-01-29T19:18:28.999Z,-2.10
2023-01-29T19:20:55.650Z,-2.03
2023-01-29T19:23:22.508Z,-2.02
2023-01-29T19:25:49.161Z,-1.92
2023-01-29T19:28:15.874Z,-1.94
2023-01-29T19:30:42.550Z,-1.89
2023-01-29T19:33:10.461Z,-1.85
2023-01-29T19:35:37.227Z,-1.92
2023-01-29T19:38:04.393Z,-1.93
2023-01-29T19:40:31.210Z,-1.86
2023-01-29T19:42:58.430Z,-1.80
2023-01-29T19:45:42.075Z,-1.76
2023-01-29T19:48:14.772Z,-1.72
2023-01-29T19:50:42.546Z,-1.73
2023-01-29T19:53:09.943Z,-1.72
2023-01-29T19:55:36.675Z,-1.68
2023-01-29T19:58:05.108Z,-1.67
2023-01-29T20:00:31.931Z,-1.61
2023-01-29T20:02:59.130Z,-1.58
2023-01-29T20:05:27.326Z,-1.55
2023-01-29T20:07:54.286Z,-1.50
2023-01-29T20:10:21.291Z,-1.47
2023-01-29T20:12:47.863Z,-1.49
2023-01-29T20:15:15.326Z,-1.41
2023-01-29T20:17:42.445Z,-1.34
2023-01-29T20:20:09.984Z,-1.34
2023-01-29T20:22:36.702Z,-1.30
2023-01-29T20:25:03.379Z,-1.27
2023-01-29T20:27:30.100Z,-1.27
2023-01-29T20:29:57.397Z,-1.28
2023-01-29T20:32:25.793Z,-1.33
2023-01-29T20:34:52.525Z,-1.25
2023-01-29T20:37:19.675Z,-1.30
2023-01-29T20:39:47.115Z,-1.19
2023-01-29T20:42:13.799Z,-1.28
2023-01-29T20:44:40.468Z,-1.27
2023-01-29T20:47:07.100Z,-1.27
2023-01-29T20:49:33.924Z,-1.26
2023-01-29T20:52:00.527Z,-1.23
2023-01-29T20:54:27.247Z,-1.19
2023-01-29T20:56:54.293Z,-1.13
2023-01-29T20:59:21.584Z,-1.13
2023-01-29T21:01:48.518Z,-1.11
2023-01-29T21:04:15.559Z,-1.18
2023-01-29T21:06:42.506Z,-1.14
2023-01-29T21:09:09.119Z,-1.10
2023-01-29T21:11:35.867Z,-1.13
2023-01-29T21:14:02.587Z,-1.11
2023-01-29T21:16:29.434Z,-1.08
2023-01-29T21:18:59.609Z,-1.11
2023-01-29T21:21:26.845Z,-1.15
2023-01-29T21:23:54.266Z,-1.11
2023-01-29T21:26:20.986Z,-1.03
2023-01-29T21:28:47.626Z,-1.15
2023-01-29T21:31:16.224Z,-1.17
2023-01-29T21:33:43.209Z,-1.08
2023-01-29T21:36:10.451Z,-1.06
2023-01-29T21:38:37.151Z,-1.11
2023-01-29T21:41:06.134Z,-1.13
2023-01-29T21:43:33.108Z,-1.20
2023-01-29T21:46:04.887Z,-1.09
2023-01-29T21:48:31.786Z,-1.19
2023-01-29T21:50:58.387Z,-1.14
2023-01-29T21:53:25.088Z,-1.16
2023-01-29T21:55:51.821Z,-1.18
2023-01-29T21:58:19.858Z,-1.19
2023-01-29T22:00:48.793Z,-1.18
2023-01-29T22:03:15.698Z,-1.17
2023-01-29T22:05:42.488Z,-1.17
2023-01-29T22:08:09.919Z,-1.17
2023-01-29T22:10:37.216Z,-1.13
2023-01-29T22:13:03.914Z,-1.11
2023-01-29T22:15:30.796Z,-1.12
2023-01-29T22:17:57.354Z,-1.10
2023-01-29T22:20:30.848Z,-1.12
2023-01-29T22:23:03.330Z,-1.08
2023-01-29T22:25:34.087Z,-1.06
2023-01-29T22:28:01.609Z,-1.04
2023-01-29T22:30:29.208Z,-1.01
2023-01-29T22:32:56.406Z,-1.04
2023-01-29T22:35:23.843Z,-1.04
2023-01-29T22:37:50.592Z,-1.04
2023-01-29T22:40:17.888Z,-1.02
2023-01-29T22:42:44.685Z,-1.04
2023-01-29T22:45:12.233Z,-0.98
2023-01-29T22:47:38.889Z,-0.95
2023-01-29T22:50:06.526Z,-0.98
2023-01-29T22:52:42.874Z,-0.99
2023-01-29T22:55:11.039Z,-0.95
2023-01-29T22:57:38.339Z,-0.96
2023-01-29T23:00:12.639Z,-0.98
2023-01-29T23:02:39.279Z,-0.97
2023-01-29T23:05:06.527Z,-0.97
2023-01-29T23:07:33.667Z,-0.95
2023-01-29T23:10:00.283Z,-0.94
2023-01-29T23:12:26.934Z,-0.90
2023-01-29T23:14:53.482Z,-0.89
2023-01-29T23:17:20.291Z,-0.86
2023-01-29T23:19:46.855Z,-0.87
2023-01-29T23:22:13.446Z,-0.87
2023-01-29T23:24:40.085Z,-0.87
2023-01-29T23:27:15.377Z,-0.83
2023-01-29T23:29:43.522Z,-0.78
2023-01-29T23:32:12.166Z,-0.79
2023-01-29T23:34:39.092Z,-0.80
2023-01-29T23:37:05.753Z,-0.86
2023-01-29T23:39:32.329Z,-0.79
2023-01-29T23:41:59.219Z,-0.88
2023-01-29T23:44:25.916Z,-0.82
2023-01-29T23:46:52.834Z,-0.83
2023-01-29T23:49:19.527Z,-0.84
2023-01-29T23:51:50.788Z,-0.82
2023-01-29T23:54:17.903Z,-0.82
2023-01-29T23:56:45.302Z,-0.78
2023-01-29T23:59:12.120Z,-0.80
